createdAt,value
2023-03-28T00:00:47.460Z,0.57
2023-03-28T00:03:19.336Z,0.67
2023-03-28T00:05:50.354Z,0.43
2023-03-28T00:08:18.898Z,0.40
2023-03-28T00:10:47.276Z,0.40
2023-03-28T00:13:15.557Z,0.50
2023-03-28T00:15:44.088Z,0.83
2023-03-28T00:18:12.687Z,0.50
2023-03-28T00:20:42.754Z,0.50
2023-03-28T00:23:12.931Z,0.50
2023-03-28T00:25:41.975Z,0.40
2023-03-28T00:28:10.500Z,0.30
2023-03-28T00:30:38.948Z,0.60
2023-03-28T00:33:07.310Z,1.07
2023-03-28T00:35:36.653Z,0.30
2023-03-28T00:38:04.965Z,0.37
2023-03-28T00:40:38.803Z,0.73
2023-03-28T00:43:07.378Z,0.40
2023-03-28T00:45:35.647Z,0.30
2023-03-28T00:48:04.631Z,0.70
2023-03-28T00:50:33.160Z,0.30
2023-03-28T00:53:04.501Z,0.37
2023-03-28T00:55:33.813Z,0.40
2023-03-28T00:58:03.429Z,0.30
2023-03-28T01:00:32.796Z,0.60
2023-03-28T01:03:01.760Z,0.47
2023-03-28T01:05:30.508Z,0.43
2023-03-28T01:07:59.384Z,0.40
2023-03-28T01:10:28.338Z,0.40
2023-03-28T01:12:56.637Z,0.30
2023-03-28T01:15:26.273Z,0.40
2023-03-28T01:17:55.027Z,0.30
2023-03-28T01:20:26.947Z,0.50
2023-03-28T01:23:10.109Z,0.30
2023-03-28T01:25:52.231Z,0.43
2023-03-28T01:28:24.085Z,0.50
2023-03-28T01:31:04.516Z,0.43
2023-03-28T01:33:46.534Z,0.40
2023-03-28T01:36:33.772Z,0.60
2023-03-28T01:39:05.932Z,0.23
2023-03-28T01:41:36.724Z,0.47
2023-03-28T01:44:06.490Z,0.37
2023-03-28T01:46:35.346Z,0.40
2023-03-28T01:49:05.807Z,0.40
2023-03-28T01:51:38.647Z,0.50
2023-03-28T01:54:11.059Z,0.20
2023-03-28T01:56:39.976Z,0.40
2023-03-28T01:59:09.250Z,0.63
2023-03-28T02:01:39.433Z,0.67
2023-03-28T02:04:20.442Z,0.30
2023-03-28T02:06:49.877Z,0.50
2023-03-28T02:09:19.929Z,0.37
2023-03-28T02:11:48.245Z,0.40
2023-03-28T02:14:17.250Z,0.30
2023-03-28T02:16:46.131Z,0.40
2023-03-28T02:19:14.409Z,0.90
2023-03-28T02:21:43.569Z,0.67
2023-03-28T02:24:13.333Z,0.47
2023-03-28T02:26:42.989Z,0.37
2023-03-28T02:29:16.052Z,0.60
2023-03-28T02:31:44.394Z,1.03
2023-03-28T02:34:12.667Z,0.50
2023-03-28T02:36:44.945Z,0.80
2023-03-28T02:39:30.641Z,0.50
2023-03-28T02:42:13.821Z,0.20
2023-03-28T02:44:48.621Z,0.67
2023-03-28T02:47:17.895Z,0.50
2023-03-28T02:49:50.653Z,0.30
2023-03-28T02:52:23.681Z,0.60
2023-03-28T02:54:52.722Z,0.30
2023-03-28T02:57:24.308Z,0.40
2023-03-28T02:59:55.412Z,0.50
2023-03-28T03:02:23.821Z,0.37
2023-03-28T03:04:52.459Z,0.40
2023-03-28T03:07:21.082Z,0.73
2023-03-28T03:09:53.933Z,0.50
2023-03-28T03:12:23.268Z,0.60
2023-03-28T03:14:51.803Z,0.47
2023-03-28T03:17:21.483Z,0.40
2023-03-28T03:19:49.739Z,0.50
2023-03-28T03:22:21.156Z,0.30
2023-03-28T03:24:51.048Z,0.70
2023-03-28T03:27:19.482Z,0.20
2023-03-28T03:29:48.520Z,0.40
2023-03-28T03:32:16.984Z,0.50
2023-03-28T03:34:46.668Z,0.20
2023-03-28T03:37:17.803Z,0.90
2023-03-28T03:39:46.081Z,0.40
2023-03-28T03:42:14.363Z,0.40
2023-03-28T03:44:42.992Z,0.40
2023-03-28T03:47:11.609Z,0.50
2023-03-28T03:49:39.887Z,0.30
2023-03-28T03:52:09.577Z,0.40
2023-03-28T03:54:38.327Z,0.43
2023-03-28T03:57:06.789Z,0.60
2023-03-28T03:59:35.280Z,0.27
2023-03-28T04:02:03.645Z,0.30
2023-03-28T04:04:32.128Z,0.60
2023-03-28T04:07:02.361Z,0.80
2023-03-28T04:09:32.074Z,0.67
2023-03-28T04:12:00.337Z,0.80
2023-03-28T04:14:28.686Z,0.87
2023-03-28T04:16:57.661Z,1.00
2023-03-28T04:19:26.004Z,0.60
2023-03-28T04:21:57.366Z,1.10
2023-03-28T04:24:25.951Z,0.93
2023-03-28T04:26:56.164Z,1.03
2023-03-28T04:29:30.523Z,1.10
2023-03-28T04:31:59.472Z,1.03
2023-03-28T04:34:29.756Z,1.70
2023-03-28T04:37:01.720Z,1.10
2023-03-28T04:39:30.579Z,0.90
2023-03-28T04:42:02.066Z,1.00
2023-03-28T04:44:30.586Z,1.13
2023-03-28T04:46:58.889Z,1.00
2023-03-28T04:49:27.480Z,1.23
2023-03-28T04:51:55.725Z,1.00
2023-03-28T04:54:23.987Z,1.27
2023-03-28T04:56:52.307Z,1.10
2023-03-28T04:59:22.473Z,1.07
2023-03-28T05:01:50.988Z,1.30
2023-03-28T05:04:19.374Z,1.00
2023-03-28T05:06:47.731Z,1.17
2023-03-28T05:09:16.352Z,1.23
2023-03-28T05:11:44.832Z,1.20
2023-03-28T05:14:13.102Z,1.00
2023-03-28T05:16:42.762Z,1.03
2023-03-28T05:19:11.138Z,0.93
2023-03-28T05:21:40.714Z,0.87
2023-03-28T05:24:09.709Z,0.63
2023-03-28T05:26:37.996Z,1.00
2023-03-28T05:29:06.492Z,0.87
2023-03-28T05:31:34.876Z,0.70
2023-03-28T05:34:04.571Z,0.60
2023-03-28T05:36:32.860Z,0.80
2023-03-28T05:39:01.150Z,0.90
2023-03-28T05:41:29.851Z,0.53
2023-03-28T05:43:58.161Z,0.90
2023-03-28T05:46:26.504Z,0.80
2023-03-28T05:48:54.935Z,0.90
2023-03-28T05:51:24.581Z,0.40
2023-03-28T05:53:52.865Z,0.70
2023-03-28T05:56:21.164Z,0.80
2023-03-28T05:58:49.428Z,0.97
2023-03-28T06:01:19.050Z,0.63
2023-03-28T06:03:47.830Z,1.10
2023-03-28T06:06:18.028Z,1.00
2023-03-28T06:08:47.685Z,0.67
2023-03-28T06:11:16.151Z,0.90
2023-03-28T06:13:44.432Z,0.53
2023-03-28T06:16:12.786Z,1.00
2023-03-28T06:18:41.125Z,0.80
2023-03-28T06:21:09.678Z,0.60
2023-03-28T06:23:37.958Z,0.90
2023-03-28T06:26:08.390Z,0.80
2023-03-28T06:28:36.707Z,0.57
2023-03-28T06:31:05.072Z,0.57
2023-03-28T06:33:33.391Z,0.50
2023-03-28T06:36:01.732Z,0.70
2023-03-28T06:38:30.645Z,0.70
2023-03-28T06:40:59.163Z,0.80
2023-03-28T06:43:31.079Z,0.90
2023-03-28T06:45:59.373Z,0.50
2023-03-28T06:48:33.086Z,0.70
2023-03-28T06:51:02.561Z,0.60
2023-03-28T06:53:31.022Z,0.63
2023-03-28T06:55:59.819Z,0.73
2023-03-28T06:58:29.507Z,0.60
2023-03-28T07:00:58.108Z,0.60
2023-03-28T07:03:26.781Z,0.50
2023-03-28T07:05:55.254Z,0.73
2023-03-28T07:08:23.593Z,0.50
2023-03-28T07:10:51.887Z,0.70
2023-03-28T07:13:20.397Z,0.50
2023-03-28T07:15:50.005Z,0.70
2023-03-28T07:18:18.569Z,0.83
2023-03-28T07:21:03.292Z,0.63
2023-03-28T07:23:32.577Z,0.80
2023-03-28T07:26:00.869Z,0.70
2023-03-28T07:28:29.163Z,1.00
2023-03-28T07:31:01.420Z,0.30
2023-03-28T07:33:36.316Z,0.60
2023-03-28T07:36:10.439Z,0.40
2023-03-28T07:38:38.849Z,0.67
2023-03-28T07:41:07.995Z,0.43
2023-03-28T07:43:36.404Z,0.70
2023-03-28T07:46:06.785Z,0.60
2023-03-28T07:48:35.528Z,0.60
2023-03-28T07:51:04.126Z,0.70
2023-03-28T07:53:32.412Z,0.77
2023-03-28T07:56:00.772Z,0.77
2023-03-28T07:58:29.061Z,0.50
2023-03-28T08:00:58.027Z,0.77
2023-03-28T08:03:28.332Z,0.40
2023-03-28T08:05:57.754Z,0.60
2023-03-28T08:08:26.070Z,0.60
2023-03-28T08:10:54.362Z,0.50
2023-03-28T08:13:22.696Z,0.90
2023-03-28T08:15:53.598Z,0.50
2023-03-28T08:18:24.755Z,1.13
2023-03-28T08:20:59.821Z,0.70
2023-03-28T08:23:28.619Z,0.33
2023-03-28T08:26:04.673Z,0.93
2023-03-28T08:28:34.057Z,0.60
2023-03-28T08:31:02.791Z,0.67
2023-03-28T08:33:32.871Z,0.87
2023-03-28T08:36:02.556Z,0.93
2023-03-28T08:38:31.469Z,0.50
2023-03-28T08:41:02.238Z,1.03
2023-03-28T08:43:45.527Z,0.67
2023-03-28T08:46:14.000Z,1.37
2023-03-28T08:48:43.044Z,1.37
2023-03-28T08:51:14.721Z,0.70
2023-03-28T08:53:43.889Z,1.03
2023-03-28T08:56:12.199Z,1.47
2023-03-28T08:58:42.849Z,0.93
2023-03-28T09:01:11.179Z,1.23
2023-03-28T09:03:39.500Z,1.07
2023-03-28T09:06:09.714Z,0.83
2023-03-28T09:08:42.069Z,1.30
2023-03-28T09:11:13.812Z,1.13
2023-03-28T09:13:43.811Z,0.90
2023-03-28T09:16:25.592Z,1.47
2023-03-28T09:19:04.337Z,0.87
2023-03-28T09:21:33.854Z,0.93
2023-03-28T09:24:10.416Z,0.40
2023-03-28T09:26:39.778Z,1.00
2023-03-28T09:29:09.005Z,0.60
2023-03-28T09:31:37.744Z,0.60
2023-03-28T09:34:07.254Z,0.73
2023-03-28T09:36:47.756Z,0.30
2023-03-28T09:39:20.732Z,0.30
2023-03-28T09:41:52.357Z,0.60
2023-03-28T09:44:20.722Z,0.60
2023-03-28T09:46:49.284Z,1.23
2023-03-28T09:49:18.665Z,0.80
2023-03-28T09:51:47.047Z,0.50
2023-03-28T09:54:15.328Z,0.70
2023-03-28T09:56:45.588Z,0.80
2023-03-28T09:59:14.167Z,0.90
2023-03-28T10:01:43.810Z,1.07
2023-03-28T10:04:12.985Z,0.60
2023-03-28T10:06:41.751Z,0.87
2023-03-28T10:09:19.765Z,0.97
2023-03-28T10:11:54.441Z,0.53
2023-03-28T10:14:35.726Z,0.60
2023-03-28T10:17:04.748Z,0.50
2023-03-28T10:19:34.445Z,0.70
2023-03-28T10:22:03.605Z,0.60
2023-03-28T10:24:32.825Z,0.73
2023-03-28T10:27:06.769Z,0.80
2023-03-28T10:29:37.198Z,0.77
2023-03-28T10:32:06.934Z,0.50
2023-03-28T10:34:35.338Z,0.50
2023-03-28T10:37:03.652Z,0.60
2023-03-28T10:39:32.242Z,0.60
2023-03-28T10:42:02.275Z,0.63
2023-03-28T10:44:31.450Z,0.37
2023-03-28T10:47:00.995Z,0.40
2023-03-28T10:49:29.361Z,0.73
2023-03-28T10:51:57.649Z,0.50
2023-03-28T10:54:38.295Z,0.83
2023-03-28T10:57:09.648Z,0.43
2023-03-28T10:59:47.161Z,0.53
2023-03-28T11:02:25.826Z,0.70
2023-03-28T11:04:56.465Z,0.57
2023-03-28T11:07:25.091Z,0.60
2023-03-28T11:09:56.166Z,0.40
2023-03-28T11:12:32.291Z,0.53
2023-03-28T11:15:06.926Z,0.30
2023-03-28T11:17:37.832Z,0.80
2023-03-28T11:20:18.423Z,0.40
2023-03-28T11:23:02.659Z,0.70
2023-03-28T11:25:33.206Z,0.90
2023-03-28T11:28:02.906Z,0.53
2023-03-28T11:30:32.036Z,0.47
2023-03-28T11:33:02.076Z,0.67
2023-03-28T11:35:31.698Z,0.50
2023-03-28T11:38:02.187Z,0.60
2023-03-28T11:40:31.328Z,0.70
2023-03-28T11:43:00.554Z,0.43
2023-03-28T11:45:42.449Z,0.43
2023-03-28T11:48:16.413Z,0.50
2023-03-28T11:50:48.055Z,0.40
2023-03-28T11:53:17.455Z,0.50
2023-03-28T11:55:46.693Z,0.60
2023-03-28T11:58:17.482Z,0.50
2023-03-28T12:00:47.736Z,0.73
2023-03-28T12:03:17.481Z,0.67
2023-03-28T12:05:46.969Z,0.50
2023-03-28T12:08:15.594Z,0.50
2023-03-28T12:10:43.948Z,0.50
2023-03-28T12:13:12.935Z,0.70
2023-03-28T12:15:43.534Z,0.50
2023-03-28T12:18:14.796Z,0.63
2023-03-28T12:20:45.258Z,0.67
2023-03-28T12:23:15.443Z,0.73
2023-03-28T12:25:44.925Z,0.40
2023-03-28T12:28:13.966Z,0.50
2023-03-28T12:30:43.040Z,0.50
2023-03-28T12:33:15.440Z,0.90
2023-03-28T12:35:45.058Z,0.37
2023-03-28T12:38:15.776Z,0.40
2023-03-28T12:40:54.648Z,0.40
2023-03-28T12:43:24.427Z,0.30
2023-03-28T12:45:56.478Z,0.40
2023-03-28T12:48:29.798Z,0.70
2023-03-28T12:50:58.144Z,0.57
2023-03-28T12:53:26.490Z,0.43
2023-03-28T12:55:54.771Z,0.57
2023-03-28T12:58:23.787Z,0.77
2023-03-28T13:00:53.232Z,0.93
2023-03-28T13:03:24.991Z,0.50
2023-03-28T13:05:56.030Z,0.67
2023-03-28T13:08:25.497Z,0.23
2023-03-28T13:11:01.902Z,0.33
2023-03-28T13:13:32.446Z,0.53
2023-03-28T13:16:04.150Z,0.63
2023-03-28T13:18:33.808Z,0.60
2023-03-28T13:21:04.659Z,0.30
2023-03-28T13:23:36.918Z,0.40
2023-03-28T13:26:05.451Z,0.70
2023-03-28T13:28:34.487Z,0.40
2023-03-28T13:31:06.684Z,0.50
2023-03-28T13:33:36.556Z,0.70
2023-03-28T13:36:19.255Z,0.30
2023-03-28T13:38:47.984Z,0.77
2023-03-28T13:41:34.870Z,0.37
2023-03-28T13:44:03.726Z,0.30
2023-03-28T13:46:32.481Z,0.40
2023-03-28T13:49:02.967Z,0.47
2023-03-28T13:51:33.265Z,0.43
2023-03-28T13:54:01.562Z,0.57
2023-03-28T13:56:31.126Z,0.37
2023-03-28T13:59:00.682Z,0.40
2023-03-28T14:01:34.851Z,0.43
2023-03-28T14:04:03.386Z,0.40
2023-03-28T14:06:33.045Z,0.40
2023-03-28T14:09:02.795Z,0.33
2023-03-28T14:11:31.792Z,0.43
2023-03-28T14:14:03.218Z,0.50
2023-03-28T14:16:31.548Z,0.60
2023-03-28T14:18:59.861Z,0.40
2023-03-28T14:21:28.140Z,0.60
2023-03-28T14:23:58.980Z,0.20
2023-03-28T14:26:27.787Z,0.40
2023-03-28T14:28:59.478Z,0.50
2023-03-28T14:31:31.480Z,0.30
2023-03-28T14:33:59.992Z,0.40
2023-03-28T14:36:31.155Z,0.60
2023-03-28T14:39:13.382Z,0.40
2023-03-28T14:41:42.166Z,0.40
2023-03-28T14:44:10.578Z,0.30
2023-03-28T14:46:38.901Z,0.20
2023-03-28T14:49:10.119Z,0.47
2023-03-28T14:51:41.787Z,0.40
2023-03-28T14:54:15.555Z,0.50
2023-03-28T14:56:43.901Z,0.43
2023-03-28T14:59:13.303Z,0.40
2023-03-28T15:01:42.184Z,0.43
2023-03-28T15:04:10.537Z,0.50
2023-03-28T15:06:39.485Z,0.40
2023-03-28T15:09:11.150Z,0.60
2023-03-28T15:11:43.606Z,0.50
2023-03-28T15:14:14.627Z,0.50
2023-03-28T15:16:43.061Z,0.87
2023-03-28T15:19:16.159Z,0.80
2023-03-28T15:21:44.459Z,0.37
2023-03-28T15:24:13.326Z,0.47
2023-03-28T15:26:44.521Z,0.40
2023-03-28T15:29:13.706Z,0.60
2023-03-28T15:31:42.020Z,0.43
2023-03-28T15:34:10.892Z,0.40
2023-03-28T15:36:39.196Z,0.60
2023-03-28T15:39:12.736Z,0.50
2023-03-28T15:41:46.765Z,0.90
2023-03-28T15:44:23.913Z,0.87
2023-03-28T15:46:52.899Z,0.80
2023-03-28T15:49:21.316Z,1.23
2023-03-28T15:51:50.779Z,1.07
2023-03-28T15:54:30.169Z,0.93
2023-03-28T15:57:01.582Z,1.43
2023-03-28T15:59:32.127Z,1.33
2023-03-28T16:02:18.917Z,0.93
2023-03-28T16:04:58.570Z,1.03
2023-03-28T16:07:27.077Z,1.60
2023-03-28T16:09:55.439Z,1.27
2023-03-28T16:12:25.946Z,1.33
2023-03-28T16:14:54.240Z,1.60
2023-03-28T16:17:24.974Z,1.27
2023-03-28T16:19:53.459Z,1.23
2023-03-28T16:22:21.864Z,0.93
2023-03-28T16:24:50.247Z,1.10
2023-03-28T16:27:18.560Z,1.47
2023-03-28T16:29:48.245Z,1.33
2023-03-28T16:32:17.226Z,1.00
2023-03-28T16:34:45.554Z,1.50
2023-03-28T16:37:13.880Z,1.10
2023-03-28T16:39:42.229Z,0.93
2023-03-28T16:42:10.538Z,1.07
2023-03-28T16:44:38.817Z,1.13
2023-03-28T16:47:08.510Z,1.10
2023-03-28T16:49:36.771Z,1.20
2023-03-28T16:52:05.206Z,1.37
2023-03-28T16:54:33.663Z,0.90
2023-03-28T16:57:02.514Z,1.10
2023-03-28T16:59:30.873Z,1.40
2023-03-28T17:01:59.377Z,1.23
2023-03-28T17:04:30.056Z,0.80
2023-03-28T17:06:58.451Z,1.00
2023-03-28T17:09:27.315Z,1.53
2023-03-28T17:11:55.641Z,1.40
2023-03-28T17:14:23.926Z,1.00
2023-03-28T17:16:52.281Z,1.30
2023-03-28T17:19:23.181Z,1.00
2023-03-28T17:21:53.581Z,0.90
2023-03-28T17:24:21.843Z,1.20
2023-03-28T17:26:50.320Z,0.97
2023-03-28T17:29:18.650Z,1.10
2023-03-28T17:31:47.057Z,0.80
2023-03-28T17:34:15.595Z,0.97
2023-03-28T17:36:44.426Z,1.20
2023-03-28T17:39:14.115Z,0.80
2023-03-28T17:41:42.571Z,1.10
2023-03-28T17:44:11.095Z,1.23
2023-03-28T17:46:39.531Z,1.20
2023-03-28T17:49:08.203Z,1.20
2023-03-28T17:51:36.597Z,1.23
2023-03-28T17:54:06.856Z,0.60
2023-03-28T17:56:36.717Z,0.80
2023-03-28T17:59:05.349Z,1.00
2023-03-28T18:01:33.799Z,0.90
2023-03-28T18:04:02.315Z,1.00
2023-03-28T18:06:30.924Z,0.87
2023-03-28T18:08:59.225Z,0.87
2023-03-28T18:11:27.518Z,0.60
2023-03-28T18:13:58.969Z,0.60
2023-03-28T18:16:27.760Z,1.23
2023-03-28T18:18:57.434Z,0.70
2023-03-28T18:21:26.188Z,0.70
2023-03-28T18:23:54.653Z,0.80
2023-03-28T18:26:23.905Z,0.67
2023-03-28T18:28:52.220Z,0.60
2023-03-28T18:31:28.013Z,0.57
2023-03-28T18:33:57.775Z,0.87
2023-03-28T18:36:26.199Z,0.80
2023-03-28T18:38:56.050Z,0.70
2023-03-28T18:41:24.888Z,1.07
2023-03-28T18:43:53.356Z,0.60
2023-03-28T18:46:25.409Z,0.80
2023-03-28T18:48:54.970Z,0.73
2023-03-28T18:51:23.387Z,0.60
2023-03-28T18:53:52.472Z,0.63
2023-03-28T18:56:21.997Z,0.60
2023-03-28T18:58:50.643Z,0.70
2023-03-28T19:01:20.548Z,0.70
2023-03-28T19:03:50.644Z,0.70
2023-03-28T19:06:19.049Z,0.60
2023-03-28T19:08:47.486Z,0.73
2023-03-28T19:11:16.692Z,0.80
2023-03-28T19:13:45.005Z,1.00
2023-03-28T19:16:14.176Z,1.00
2023-03-28T19:18:42.963Z,1.03
2023-03-28T19:21:12.704Z,1.17
2023-03-28T19:23:41.194Z,1.40
2023-03-28T19:26:09.759Z,1.23
2023-03-28T19:28:39.199Z,0.93
2023-03-28T19:31:08.253Z,1.30
2023-03-28T19:33:37.289Z,1.17
2023-03-28T19:36:06.942Z,1.00
2023-03-28T19:38:37.105Z,1.10
2023-03-28T19:41:08.593Z,1.10
2023-03-28T19:43:38.592Z,1.27
2023-03-28T19:46:07.191Z,1.20
2023-03-28T19:48:35.952Z,1.23
2023-03-28T19:51:04.332Z,1.03
2023-03-28T19:53:32.800Z,1.33
2023-03-28T19:56:02.704Z,1.00
2023-03-28T19:58:31.329Z,1.37
2023-03-28T20:01:00.182Z,1.17
2023-03-28T20:03:28.710Z,1.30
2023-03-28T20:05:57.051Z,1.30
2023-03-28T20:08:25.301Z,1.40
2023-03-28T20:10:53.703Z,1.87
2023-03-28T20:13:23.383Z,1.47
2023-03-28T20:15:52.202Z,1.23
2023-03-28T20:18:20.807Z,1.73
2023-03-28T20:20:52.813Z,1.30
2023-03-28T20:23:22.562Z,2.50
2023-03-28T20:25:50.816Z,1.70
2023-03-28T20:28:20.916Z,1.47
2023-03-28T20:30:50.712Z,1.87
2023-03-28T20:33:20.519Z,1.43
2023-03-28T20:35:52.815Z,1.47
2023-03-28T20:38:21.275Z,1.40
2023-03-28T20:40:49.651Z,1.30
2023-03-28T20:43:20.130Z,1.10
2023-03-28T20:45:53.805Z,1.30
2023-03-28T20:48:25.987Z,1.37
2023-03-28T20:50:55.208Z,1.57
2023-03-28T20:53:23.497Z,1.57
2023-03-28T20:55:52.731Z,1.33
2023-03-28T20:58:21.485Z,1.00
2023-03-28T21:00:53.662Z,1.27
2023-03-28T21:03:23.405Z,1.60
2023-03-28T21:05:52.236Z,1.13
2023-03-28T21:08:21.557Z,1.77
2023-03-28T21:10:53.418Z,1.50
2023-03-28T21:13:23.146Z,1.00
2023-03-28T21:15:52.546Z,1.50
2023-03-28T21:18:21.547Z,1.10
2023-03-28T21:20:51.667Z,1.10
2023-03-28T21:23:19.935Z,1.60
2023-03-28T21:25:48.915Z,1.10
2023-03-28T21:28:17.218Z,1.13
2023-03-28T21:30:45.569Z,1.23
2023-03-28T21:33:16.124Z,1.07
2023-03-28T21:35:44.723Z,0.90
2023-03-28T21:38:14.482Z,1.13
2023-03-28T21:40:42.910Z,1.23
2023-03-28T21:43:11.202Z,0.93
2023-03-28T21:45:39.552Z,1.03
2023-03-28T21:48:08.281Z,0.67
2023-03-28T21:50:38.858Z,1.20
2023-03-28T21:53:07.145Z,1.10
2023-03-28T21:55:36.849Z,0.93
2023-03-28T21:58:05.230Z,0.83
2023-03-28T22:00:33.970Z,0.93
2023-03-28T22:03:02.327Z,1.27
2023-03-28T22:05:30.739Z,1.00
2023-03-28T22:07:59.074Z,0.90
2023-03-28T22:10:27.459Z,1.07
2023-03-28T22:12:58.800Z,0.87
2023-03-28T22:15:27.351Z,0.87
2023-03-28T22:17:58.419Z,0.63
2023-03-28T22:20:26.913Z,0.33
2023-03-28T22:22:55.269Z,1.43
2023-03-28T22:25:23.605Z,0.70
2023-03-28T22:27:53.146Z,1.17
2023-03-28T22:30:22.803Z,0.77
2023-03-28T22:32:51.177Z,0.70
2023-03-28T22:35:19.590Z,0.97
2023-03-28T22:37:47.896Z,0.70
2023-03-28T22:40:16.476Z,0.60
2023-03-28T22:42:45.145Z,0.80
2023-03-28T22:45:13.548Z,1.03
2023-03-28T22:47:43.287Z,0.80
2023-03-28T22:50:14.655Z,1.03
2023-03-28T22:52:42.964Z,0.70
2023-03-28T22:55:13.548Z,1.03
2023-03-28T22:57:42.936Z,1.07
2023-03-28T23:00:12.347Z,1.00
2023-03-28T23:02:41.527Z,0.77
2023-03-28T23:05:12.696Z,1.43
2023-03-28T23:07:41.986Z,0.77
2023-03-28T23:10:10.950Z,0.67
2023-03-28T23:12:39.241Z,0.80
2023-03-28T23:15:08.020Z,0.87
2023-03-28T23:17:36.383Z,1.03
2023-03-28T23:20:07.106Z,0.60
2023-03-28T23:22:37.265Z,0.70
2023-03-28T23:25:05.675Z,0.97
2023-03-28T23:27:33.985Z,0.87
2023-03-28T23:30:02.313Z,0.57
2023-03-28T23:32:30.657Z,0.57
2023-03-28T23:34:58.937Z,1.00
2023-03-28T23:37:27.418Z,0.80
2023-03-28T23:39:57.549Z,0.80
2023-03-28T23:42:26.039Z,1.33
2023-03-28T23:44:54.392Z,0.60
2023-03-28T23:47:23.227Z,0.73
2023-03-28T23:49:51.571Z,0.77
2023-03-28T23:52:20.515Z,0.70
2023-03-28T23:54:48.846Z,0.50
2023-03-28T23:57:18.730Z,0.60
2023-03-28T23:59:47.082Z,0.73
